sensor_id;sensor_type;location;lat;lon;timestamp;pressure;altitude;pressure_sealevel;temperature;humidity
69570;BME280;56781;42.292;23.146;2023-12-20T00:00:31;95636.50;;;-5.37;92.73
69570;BME280;56781;42.292;23.146;2023-12-20T00:03:01;95933.31;;;-2.90;92.50
69570;BME280;56781;42.292;23.146;2023-12-20T00:05:29;95944.22;;;-3.18;91.46
69570;BME280;56781;42.292;23.146;2023-12-20T00:07:59;95962.44;;;-3.09;92.34
69570;BME280;56781;42.292;23.146;2023-12-20T00:10:29;95872.50;;;-3.41;92.09
69570;BME280;56781;42.292;23.146;2023-12-20T00:12:58;95881.28;;;-3.46;93.03
69570;BME280;56781;42.292;23.146;2023-12-20T00:15:27;95523.44;;;-5.60;92.49
69570;BME280;56781;42.292;23.146;2023-12-20T00:17:56;95859.91;;;-3.10;91.30
69570;BME280;56781;42.292;23.146;2023-12-20T00:20:24;95758.56;;;-4.21;90.97
69570;BME280;56781;42.292;23.146;2023-12-20T00:22:53;95901.47;;;-3.34;91.47
69570;BME280;56781;42.292;23.146;2023-12-20T00:25:21;95919.16;;;-3.10;91.96
69570;BME280;56781;42.292;23.146;2023-12-20T00:27:52;95773.94;;;-3.98;92.24
69570;BME280;56781;42.292;23.146;2023-12-20T00:30:21;95865.09;;;-3.60;91.65
69570;BME280;56781;42.292;23.146;2023-12-20T00:32:49;95932.09;;;-3.22;93.15
69570;BME280;56781;42.292;23.146;2023-12-20T00:35:18;95516.63;;;-5.82;92.36
69570;BME280;56781;42.292;23.146;2023-12-20T00:37:47;95911.44;;;-3.07;92.85
69570;BME280;56781;42.292;23.146;2023-12-20T00:40:16;95520.69;;;-5.64;91.92
69570;BME280;56781;42.292;23.146;2023-12-20T00:42:44;95784.06;;;-3.76;91.44
69570;BME280;56781;42.292;23.146;2023-12-20T00:45:15;95503.31;;;-5.81;89.72
69570;BME280;56781;42.292;23.146;2023-12-20T00:47:44;95720.09;;;-3.94;90.37
69570;BME280;56781;42.292;23.146;2023-12-20T00:50:13;95695.97;;;-4.33;89.52
69570;BME280;56781;42.292;23.146;2023-12-20T00:52:42;95898.78;;;-2.96;90.77
69570;BME280;56781;42.292;23.146;2023-12-20T00:55:11;95911.28;;;-3.31;91.19
69570;BME280;56781;42.292;23.146;2023-12-20T00:57:40;95672.28;;;-5.34;91.71
69570;BME280;56781;42.292;23.146;2023-12-20T01:00:10;95520.22;;;-5.66;92.10
69570;BME280;56781;42.292;23.146;2023-12-20T01:02:42;95452.34;;;-5.94;90.31
69570;BME280;56781;42.292;23.146;2023-12-20T01:05:10;95660.41;;;-4.58;91.58
69570;BME280;56781;42.292;23.146;2023-12-20T01:07:39;95814.63;;;-3.55;91.08
69570;BME280;56781;42.292;23.146;2023-12-20T01:10:08;95848.72;;;-3.19;90.99
69570;BME280;56781;42.292;23.146;2023-12-20T01:12:37;95880.50;;;-3.17;91.28
69570;BME280;56781;42.292;23.146;2023-12-20T01:15:07;95811.19;;;-3.47;91.41
69570;BME280;56781;42.292;23.146;2023-12-20T01:17:36;95528.25;;;-5.41;90.73
69570;BME280;56781;42.292;23.146;2023-12-20T01:20:08;95836.66;;;-3.44;91.21
69570;BME280;56781;42.292;23.146;2023-12-20T01:22:37;95457.25;;;-5.63;91.12
69570;BME280;56781;42.292;23.146;2023-12-20T01:25:07;95542.56;;;-5.27;90.79
69570;BME280;56781;42.292;23.146;2023-12-20T01:27:35;95752.88;;;-3.93;91.18
69570;BME280;56781;42.292;23.146;2023-12-20T01:30:05;95652.44;;;-4.53;91.82
69570;BME280;56781;42.292;23.146;2023-12-20T01:32:34;95477.25;;;-5.63;91.10
69570;BME280;56781;42.292;23.146;2023-12-20T01:35:03;95785.03;;;-3.60;91.04
69570;BME280;56781;42.292;23.146;2023-12-20T01:37:34;95772.91;;;-3.55;91.79
69570;BME280;56781;42.292;23.146;2023-12-20T01:40:03;95782.63;;;-3.65;92.40
69570;BME280;56781;42.292;23.146;2023-12-20T01:42:33;95800.31;;;-3.70;92.88
69570;BME280;56781;42.292;23.146;2023-12-20T01:45:02;95831.69;;;-3.37;92.76
69570;BME280;56781;42.292;23.146;2023-12-20T01:47:30;95472.75;;;-5.84;92.91
69570;BME280;56781;42.292;23.146;2023-12-20T01:49:59;95475.25;;;-5.58;93.03
69570;BME280;56781;42.292;23.146;2023-12-20T01:52:31;95752.16;;;-3.73;93.08
69570;BME280;56781;42.292;23.146;2023-12-20T01:55:04;95825.81;;;-2.92;93.07
69570;BME280;56781;42.292;23.146;2023-12-20T01:57:41;95456.25;;;-5.50;91.77
69570;BME280;56781;42.292;23.146;2023-12-20T02:00:11;95466.59;;;-5.70;92.71
69570;BME280;56781;42.292;23.146;2023-12-20T02:02:41;95811.19;;;-3.06;93.43
69570;BME280;56781;42.292;23.146;2023-12-20T02:05:12;95597.78;;;-4.62;92.48
69570;BME280;56781;42.292;23.146;2023-12-20T02:07:41;95508.66;;;-5.01;92.42
69570;BME280;56781;42.292;23.146;2023-12-20T02:10:12;95431.44;;;-5.38;92.20
69570;BME280;56781;42.292;23.146;2023-12-20T02:12:41;95576.28;;;-4.50;92.40
69570;BME280;56781;42.292;23.146;2023-12-20T02:15:10;95726.22;;;-3.48;92.46
69570;BME280;56781;42.292;23.146;2023-12-20T02:17:39;95586.91;;;-4.34;91.47
69570;BME280;56781;42.292;23.146;2023-12-20T02:20:09;95729.84;;;-3.08;91.15
69570;BME280;56781;42.292;23.146;2023-12-20T02:22:39;95578.97;;;-4.68;91.65
69570;BME280;56781;42.292;23.146;2023-12-20T02:25:08;95531.31;;;-4.80;92.64
69570;BME280;56781;42.292;23.146;2023-12-20T02:27:38;95420.03;;;-5.75;92.56
69570;BME280;56781;42.292;23.146;2023-12-20T02:30:08;95646.66;;;-4.38;93.46
69570;BME280;56781;42.292;23.146;2023-12-20T02:32:37;95609.81;;;-4.78;93.41
69570;BME280;56781;42.292;23.146;2023-12-20T02:35:06;95434.34;;;-5.99;93.90
69570;BME280;56781;42.292;23.146;2023-12-20T02:37:35;95631.22;;;-4.43;94.33
69570;BME280;56781;42.292;23.146;2023-12-20T02:40:07;95725.88;;;-3.89;95.28
69570;BME280;56781;42.292;23.146;2023-12-20T02:42:36;95740.19;;;-3.95;95.07
69570;BME280;56781;42.292;23.146;2023-12-20T02:45:06;95753.38;;;-3.49;94.82
69570;BME280;56781;42.292;23.146;2023-12-20T02:47:34;95716.13;;;-3.71;94.72
69570;BME280;56781;42.292;23.146;2023-12-20T02:50:04;95393.75;;;-5.83;93.62
69570;BME280;56781;42.292;23.146;2023-12-20T02:52:33;95391.09;;;-5.95;94.03
69570;BME280;56781;42.292;23.146;2023-12-20T02:55:01;95763.81;;;-3.49;94.82
69570;BME280;56781;42.292;23.146;2023-12-20T02:57:32;95390.84;;;-5.81;94.11
69570;BME280;56781;42.292;23.146;2023-12-20T03:00:04;95677.38;;;-3.81;94.38
69570;BME280;56781;42.292;23.146;2023-12-20T03:02:33;95661.34;;;-3.50;93.28
69570;BME280;56781;42.292;23.146;2023-12-20T03:05:02;95751.84;;;-3.30;93.17
69570;BME280;56781;42.292;23.146;2023-12-20T03:07:31;95355.25;;;-6.10;92.15
69570;BME280;56781;42.292;23.146;2023-12-20T03:09:59;95698.81;;;-3.75;92.57
69570;BME280;56781;42.292;23.146;2023-12-20T03:12:47;95473.50;;;-5.15;93.31
69570;BME280;56781;42.292;23.146;2023-12-20T03:15:16;95387.50;;;-5.52;91.92
69570;BME280;56781;42.292;23.146;2023-12-20T03:17:45;95735.06;;;-3.41;92.57
69570;BME280;56781;42.292;23.146;2023-12-20T03:20:15;95387.50;;;-5.82;92.31
69570;BME280;56781;42.292;23.146;2023-12-20T03:22:43;95444.66;;;-5.52;93.26
69570;BME280;56781;42.292;23.146;2023-12-20T03:25:12;95738.06;;;-3.51;93.30
69570;BME280;56781;42.292;23.146;2023-12-20T03:27:41;95667.63;;;-3.84;92.75
69570;BME280;56781;42.292;23.146;2023-12-20T03:30:12;95397.13;;;-6.20;93.04
69570;BME280;56781;42.292;23.146;2023-12-20T03:32:41;95632.66;;;-4.54;93.75
69570;BME280;56781;42.292;23.146;2023-12-20T03:35:10;95537.50;;;-5.23;95.01
69570;BME280;56781;42.292;23.146;2023-12-20T03:37:39;95358.41;;;-6.34;93.99
69570;BME280;56781;42.292;23.146;2023-12-20T03:40:09;95371.50;;;-6.22;93.62
69570;BME280;56781;42.292;23.146;2023-12-20T03:42:38;95481.59;;;-5.38;94.41
69570;BME280;56781;42.292;23.146;2023-12-20T03:45:08;95469.41;;;-5.46;94.33
69570;BME280;56781;42.292;23.146;2023-12-20T03:47:38;95562.41;;;-5.22;94.08
69570;BME280;56781;42.292;23.146;2023-12-20T03:50:07;95725.22;;;-4.06;94.32
69570;BME280;56781;42.292;23.146;2023-12-20T03:52:36;95669.34;;;-4.38;95.12
69570;BME280;56781;42.292;23.146;2023-12-20T03:55:05;95718.47;;;-3.99;94.48
69570;BME280;56781;42.292;23.146;2023-12-20T03:57:34;95587.97;;;-4.86;94.73
69570;BME280;56781;42.292;23.146;2023-12-20T04:00:04;95455.41;;;-5.92;94.55
69570;BME280;56781;42.292;23.146;2023-12-20T04:02:38;95686.69;;;-3.92;94.72
69570;BME280;56781;42.292;23.146;2023-12-20T04:05:08;95514.56;;;-5.21;94.48
69570;BME280;56781;42.292;23.146;2023-12-20T04:07:38;95706.47;;;-3.70;94.61
69570;BME280;56781;42.292;23.146;2023-12-20T04:10:07;95632.66;;;-4.25;93.97
69570;BME280;56781;42.292;23.146;2023-12-20T04:12:36;95709.00;;;-3.82;93.82
69570;BME280;56781;42.292;23.146;2023-12-20T04:15:06;95714.69;;;-4.10;94.50
69570;BME280;56781;42.292;23.146;2023-12-20T04:17:38;95307.28;;;-6.42;93.83
69570;BME280;56781;42.292;23.146;2023-12-20T04:20:08;95479.84;;;-5.25;93.03
69570;BME280;56781;42.292;23.146;2023-12-20T04:22:37;95575.22;;;-4.49;92.29
69570;BME280;56781;42.292;23.146;2023-12-20T04:25:06;95469.25;;;-5.41;93.02
69570;BME280;56781;42.292;23.146;2023-12-20T04:27:34;95301.03;;;-6.41;93.64
69570;BME280;56781;42.292;23.146;2023-12-20T04:30:04;95696.47;;;-3.68;93.29
69570;BME280;56781;42.292;23.146;2023-12-20T04:32:33;95691.81;;;-4.04;94.19
69570;BME280;56781;42.292;23.146;2023-12-20T04:35:03;95721.50;;;-3.97;94.45
69570;BME280;56781;42.292;23.146;2023-12-20T04:37:31;95278.00;;;-6.51;93.65
69570;BME280;56781;42.292;23.146;2023-12-20T04:40:00;95302.38;;;-6.06;93.22
69570;BME280;56781;42.292;23.146;2023-12-20T04:42:29;95599.16;;;-4.35;93.52
69570;BME280;56781;42.292;23.146;2023-12-20T04:44:57;95678.59;;;-3.58;93.34
69570;BME280;56781;42.292;23.146;2023-12-20T04:47:26;95462.09;;;-5.23;92.48
69570;BME280;56781;42.292;23.146;2023-12-20T04:49:55;95317.56;;;-5.66;91.32
69570;BME280;56781;42.292;23.146;2023-12-20T04:52:25;95639.06;;;-3.80;92.14
69570;BME280;56781;42.292;23.146;2023-12-20T04:54:54;95674.16;;;-3.57;91.83
69570;BME280;56781;42.292;23.146;2023-12-20T04:57:23;95240.34;;;-6.28;91.36
69570;BME280;56781;42.292;23.146;2023-12-20T04:59:51;95277.81;;;-6.08;91.70
69570;BME280;56781;42.292;23.146;2023-12-20T05:02:20;95468.63;;;-4.67;91.35
69570;BME280;56781;42.292;23.146;2023-12-20T05:04:49;95607.63;;;-3.96;92.08
69570;BME280;56781;42.292;23.146;2023-12-20T05:07:21;95407.38;;;-5.56;93.09
69570;BME280;56781;42.292;23.146;2023-12-20T05:09:52;95381.16;;;-5.93;93.09
69570;BME280;56781;42.292;23.146;2023-12-20T05:12:21;95488.53;;;-4.91;93.17
69570;BME280;56781;42.292;23.146;2023-12-20T05:14:50;95669.03;;;-3.53;92.75
69570;BME280;56781;42.292;23.146;2023-12-20T05:17:19;95251.88;;;-6.46;92.48
69570;BME280;56781;42.292;23.146;2023-12-20T05:19:48;95464.78;;;-4.90;92.50
69570;BME280;56781;42.292;23.146;2023-12-20T05:22:16;95306.47;;;-5.75;91.18
69570;BME280;56781;42.292;23.146;2023-12-20T05:24:45;95471.41;;;-4.72;91.45
69570;BME280;56781;42.292;23.146;2023-12-20T05:27:16;95581.56;;;-3.96;92.17
69570;BME280;56781;42.292;23.146;2023-12-20T05:29:45;95641.81;;;-3.77;93.20
69570;BME280;56781;42.292;23.146;2023-12-20T05:32:13;95438.78;;;-4.90;92.70
69570;BME280;56781;42.292;23.146;2023-12-20T05:34:42;95202.63;;;-6.25;91.54
69570;BME280;56781;42.292;23.146;2023-12-20T05:37:10;95649.78;;;-3.28;91.62
69570;BME280;56781;42.292;23.146;2023-12-20T05:39:39;95431.03;;;-4.78;90.89
69570;BME280;56781;42.292;23.146;2023-12-20T05:42:08;95639.31;;;-3.40;91.70
69570;BME280;56781;42.292;23.146;2023-12-20T05:44:38;95321.44;;;-5.30;90.84
69570;BME280;56781;42.292;23.146;2023-12-20T05:47:07;95255.31;;;-5.62;91.36
69570;BME280;56781;42.292;23.146;2023-12-20T05:49:36;95245.69;;;-6.03;90.58
69570;BME280;56781;42.292;23.146;2023-12-20T05:52:05;95488.09;;;-4.52;92.30
69570;BME280;56781;42.292;23.146;2023-12-20T05:54:34;95303.63;;;-5.82;92.20
69570;BME280;56781;42.292;23.146;2023-12-20T05:57:03;95354.38;;;-5.34;91.75
69570;BME280;56781;42.292;23.146;2023-12-20T05:59:32;95510.88;;;-4.49;93.67
69570;BME280;56781;42.292;23.146;2023-12-20T06:02:03;95239.94;;;-6.39;93.40
69570;BME280;56781;42.292;23.146;2023-12-20T06:04:32;95612.44;;;-4.07;94.11
69570;BME280;56781;42.292;23.146;2023-12-20T06:07:02;95282.47;;;-5.93;94.09
69570;BME280;56781;42.292;23.146;2023-12-20T06:09:31;95270.13;;;-5.84;92.97
69570;BME280;56781;42.292;23.146;2023-12-20T06:11:59;95519.03;;;-4.50;92.98
69570;BME280;56781;42.292;23.146;2023-12-20T06:14:28;95450.41;;;-4.87;92.89
69570;BME280;56781;42.292;23.146;2023-12-20T06:16:58;95387.84;;;-5.12;92.13
69570;BME280;56781;42.292;23.146;2023-12-20T06:19:29;95243.88;;;-6.71;91.75
69570;BME280;56781;42.292;23.146;2023-12-20T06:21:57;95434.75;;;-5.29;92.84
69570;BME280;56781;42.292;23.146;2023-12-20T06:24:26;95644.22;;;-3.72;93.33
69570;BME280;56781;42.292;23.146;2023-12-20T06:26:55;95570.16;;;-4.25;93.41
69570;BME280;56781;42.292;23.146;2023-12-20T06:29:24;95653.88;;;-3.39;92.94
69570;BME280;56781;42.292;23.146;2023-12-20T06:31:52;95399.25;;;-4.83;90.88
69570;BME280;56781;42.292;23.146;2023-12-20T06:34:21;95195.66;;;-6.13;90.89
69570;BME280;56781;42.292;23.146;2023-12-20T06:36:52;95267.56;;;-5.63;91.70
69570;BME280;56781;42.292;23.146;2023-12-20T06:39:20;95541.09;;;-4.15;92.45
69570;BME280;56781;42.292;23.146;2023-12-20T06:41:49;95624.47;;;-3.27;91.92
69570;BME280;56781;42.292;23.146;2023-12-20T06:44:18;95611.84;;;-3.38;92.64
69570;BME280;56781;42.292;23.146;2023-12-20T06:46:47;95493.41;;;-4.48;91.83
69570;BME280;56781;42.292;23.146;2023-12-20T06:49:16;95412.34;;;-4.92;92.74
69570;BME280;56781;42.292;23.146;2023-12-20T06:51:48;95586.06;;;-3.85;92.40
69570;BME280;56781;42.292;23.146;2023-12-20T06:54:18;95612.47;;;-3.74;93.00
69570;BME280;56781;42.292;23.146;2023-12-20T06:56:47;95620.47;;;-3.91;93.19
69570;BME280;56781;42.292;23.146;2023-12-20T06:59:15;95543.44;;;-4.22;93.07
69570;BME280;56781;42.292;23.146;2023-12-20T07:01:47;95246.97;;;-5.89;92.96
69570;BME280;56781;42.292;23.146;2023-12-20T07:04:17;95222.91;;;-5.98;91.69
69570;BME280;56781;42.292;23.146;2023-12-20T07:06:49;95598.56;;;-3.33;93.24
69570;BME280;56781;42.292;23.146;2023-12-20T07:09:21;95501.97;;;-4.06;92.05
69570;BME280;56781;42.292;23.146;2023-12-20T07:11:50;95537.63;;;-3.86;92.92
69570;BME280;56781;42.292;23.146;2023-12-20T07:14:19;95278.00;;;-5.30;91.95
69570;BME280;56781;42.292;23.146;2023-12-20T07:16:47;95385.63;;;-4.80;92.24
69570;BME280;56781;42.292;23.146;2023-12-20T07:19:16;95523.41;;;-3.31;90.90
69570;BME280;56781;42.292;23.146;2023-12-20T07:21:45;95542.16;;;-3.49;92.07
69570;BME280;56781;42.292;23.146;2023-12-20T07:24:14;95277.59;;;-4.99;91.63
69570;BME280;56781;42.292;23.146;2023-12-20T07:26:44;95499.56;;;-2.80;89.99
69570;BME280;56781;42.292;23.146;2023-12-20T07:29:13;95224.91;;;-4.96;89.09
69570;BME280;56781;42.292;23.146;2023-12-20T07:31:41;95161.19;;;-5.47;89.57
69570;BME280;56781;42.292;23.146;2023-12-20T07:34:10;95565.91;;;-2.93;90.72
69570;BME280;56781;42.292;23.146;2023-12-20T07:36:39;95500.91;;;-3.23;91.34
69570;BME280;56781;42.292;23.146;2023-12-20T07:39:08;95225.16;;;-5.34;90.33
69570;BME280;56781;42.292;23.146;2023-12-20T07:41:37;95561.53;;;-3.14;91.36
69570;BME280;56781;42.292;23.146;2023-12-20T07:44:07;95550.56;;;-3.19;92.27
69570;BME280;56781;42.292;23.146;2023-12-20T07:46:36;95515.47;;;-3.22;90.71
69570;BME280;56781;42.292;23.146;2023-12-20T07:49:05;95552.44;;;-2.83;90.52
69570;BME280;56781;42.292;23.146;2023-12-20T07:51:35;95364.50;;;-4.21;90.12
69570;BME280;56781;42.292;23.146;2023-12-20T07:54:04;95439.38;;;-3.61;91.41
69570;BME280;56781;42.292;23.146;2023-12-20T07:56:35;95306.88;;;-4.32;89.50
69570;BME280;56781;42.292;23.146;2023-12-20T07:59:04;95512.78;;;-2.61;89.34
69570;BME280;56781;42.292;23.146;2023-12-20T08:01:40;95571.38;;;-1.94;87.84
69570;BME280;56781;42.292;23.146;2023-12-20T08:04:09;95550.81;;;-2.35;88.82
69570;BME280;56781;42.292;23.146;2023-12-20T08:06:38;95126.72;;;-5.11;88.19
69570;BME280;56781;42.292;23.146;2023-12-20T08:09:07;95560.88;;;-2.50;89.24
69570;BME280;56781;42.292;23.146;2023-12-20T08:11:36;95547.53;;;-2.32;88.90
69570;BME280;56781;42.292;23.146;2023-12-20T08:14:04;95218.09;;;-4.76;87.54
69570;BME280;56781;42.292;23.146;2023-12-20T08:16:33;95160.88;;;-5.00;87.42
69570;BME280;56781;42.292;23.146;2023-12-20T08:19:04;95257.72;;;-4.46;88.76
69570;BME280;56781;42.292;23.146;2023-12-20T08:21:33;95135.66;;;-5.33;89.35
69570;BME280;56781;42.292;23.146;2023-12-20T08:24:05;95536.41;;;-2.69;88.86
69570;BME280;56781;42.292;23.146;2023-12-20T08:26:34;95151.59;;;-5.34;89.34
69570;BME280;56781;42.292;23.146;2023-12-20T08:29:03;95444.75;;;-2.92;88.79
69570;BME280;56781;42.292;23.146;2023-12-20T08:31:31;95225.75;;;-4.46;88.39
69570;BME280;56781;42.292;23.146;2023-12-20T08:34:01;95184.09;;;-4.46;88.63
69570;BME280;56781;42.292;23.146;2023-12-20T08:36:34;95521.75;;;-2.06;87.47
69570;BME280;56781;42.292;23.146;2023-12-20T08:39:03;95314.91;;;-4.00;87.92
69570;BME280;56781;42.292;23.146;2023-12-20T08:41:35;95268.13;;;-3.72;88.67
69570;BME280;56781;42.292;23.146;2023-12-20T08:44:04;95517.34;;;-1.89;88.27
69570;BME280;56781;42.292;23.146;2023-12-20T08:46:33;95306.88;;;-3.59;88.17
69570;BME280;56781;42.292;23.146;2023-12-20T08:49:02;95392.00;;;-2.58;88.77
69570;BME280;56781;42.292;23.146;2023-12-20T08:51:31;95157.19;;;-3.42;86.47
69570;BME280;56781;42.292;23.146;2023-12-20T08:54:02;95241.69;;;-3.03;84.98
69570;BME280;56781;42.292;23.146;2023-12-20T08:56:34;95431.97;;;-1.19;83.98
69570;BME280;56781;42.292;23.146;2023-12-20T08:59:03;95419.41;;;-1.45;83.41
69570;BME280;56781;42.292;23.146;2023-12-20T09:01:32;95484.13;;;-1.10;85.14
69570;BME280;56781;42.292;23.146;2023-12-20T09:04:00;95418.75;;;-1.42;85.21
69570;BME280;56781;42.292;23.146;2023-12-20T09:06:29;95407.19;;;-1.56;85.32
69570;BME280;56781;42.292;23.146;2023-12-20T09:08:58;95270.75;;;-1.94;83.18
69570;BME280;56781;42.292;23.146;2023-12-20T09:11:29;95462.72;;;-0.80;83.00
69570;BME280;56781;42.292;23.146;2023-12-20T09:13:57;95129.94;;;-2.50;81.66
69570;BME280;56781;42.292;23.146;2023-12-20T09:16:26;95464.53;;;-0.46;83.03
69570;BME280;56781;42.292;23.146;2023-12-20T09:18:55;95443.38;;;-0.92;84.95
69570;BME280;56781;42.292;23.146;2023-12-20T09:21:24;95391.75;;;-1.46;84.81
69570;BME280;56781;42.292;23.146;2023-12-20T09:23:53;95241.41;;;-2.54;85.52
69570;BME280;56781;42.292;23.146;2023-12-20T09:26:21;95084.53;;;-3.27;84.38
69570;BME280;56781;42.292;23.146;2023-12-20T09:28:52;95367.91;;;-1.25;85.50
69570;BME280;56781;42.292;23.146;2023-12-20T09:31:20;95425.22;;;-0.46;84.48
69570;BME280;56781;42.292;23.146;2023-12-20T09:33:49;95139.41;;;-2.26;84.56
69570;BME280;56781;42.292;23.146;2023-12-20T09:36:18;95078.03;;;-2.86;84.26
69570;BME280;56781;42.292;23.146;2023-12-20T09:38:47;95092.28;;;-3.31;85.62
69570;BME280;56781;42.292;23.146;2023-12-20T09:41:16;95354.66;;;-1.99;87.75
69570;BME280;56781;42.292;23.146;2023-12-20T09:43:45;95411.16;;;-1.47;88.50
69570;BME280;56781;42.292;23.146;2023-12-20T09:46:17;95412.31;;;-1.28;88.35
69570;BME280;56781;42.292;23.146;2023-12-20T09:48:50;95345.72;;;-1.12;87.00
69570;BME280;56781;42.292;23.146;2023-12-20T09:51:19;95187.69;;;-2.20;84.45
69570;BME280;56781;42.292;23.146;2023-12-20T09:53:50;95067.28;;;-3.16;86.12
69570;BME280;56781;42.292;23.146;2023-12-20T09:56:21;95260.09;;;-1.69;86.03
69570;BME280;56781;42.292;23.146;2023-12-20T09:58:50;95250.53;;;-1.61;86.41
69570;BME280;56781;42.292;23.146;2023-12-20T10:01:21;95301.78;;;-0.18;83.21
69570;BME280;56781;42.292;23.146;2023-12-20T10:03:51;94955.38;;;-2.86;84.92
69570;BME280;56781;42.292;23.146;2023-12-20T10:06:20;95117.06;;;-1.65;83.52
69570;BME280;56781;42.292;23.146;2023-12-20T10:08:49;95134.09;;;-1.75;84.46
69570;BME280;56781;42.292;23.146;2023-12-20T10:11:18;95311.66;;;-0.53;84.85
69570;BME280;56781;42.292;23.146;2023-12-20T10:13:48;95007.25;;;-1.65;81.41
69570;BME280;56781;42.292;23.146;2023-12-20T10:16:16;95272.88;;;0.02;82.10
69570;BME280;56781;42.292;23.146;2023-12-20T10:18:47;95032.59;;;-1.46;81.46
69570;BME280;56781;42.292;23.146;2023-12-20T10:21:16;95254.19;;;0.07;81.36
69570;BME280;56781;42.292;23.146;2023-12-20T10:23:46;94992.38;;;-2.03;82.56
69570;BME280;56781;42.292;23.146;2023-12-20T10:26:19;95318.31;;;-0.14;83.86
69570;BME280;56781;42.292;23.146;2023-12-20T10:28:50;95295.63;;;-0.48;84.52
69570;BME280;56781;42.292;23.146;2023-12-20T10:31:30;95243.25;;;-0.25;85.10
69570;BME280;56781;42.292;23.146;2023-12-20T10:34:02;94932.81;;;-1.94;81.66
69570;BME280;56781;42.292;23.146;2023-12-20T10:36:32;95131.56;;;-0.04;79.90
69570;BME280;56781;42.292;23.146;2023-12-20T10:39:05;95245.00;;;0.80;80.04
69570;BME280;56781;42.292;23.146;2023-12-20T10:41:36;95062.91;;;-0.43;82.83
69570;BME280;56781;42.292;23.146;2023-12-20T10:44:08;95293.00;;;0.77;83.63
69570;BME280;56781;42.292;23.146;2023-12-20T10:46:40;95217.41;;;0.60;82.87
69570;BME280;56781;42.292;23.146;2023-12-20T10:49:17;95191.34;;;0.44;82.81
69570;BME280;56781;42.292;23.146;2023-12-20T10:51:46;95197.50;;;0.59;82.90
69570;BME280;56781;42.292;23.146;2023-12-20T10:54:16;94898.06;;;-0.89;81.22
69570;BME280;56781;42.292;23.146;2023-12-20T10:56:44;95179.44;;;0.53;82.44
69570;BME280;56781;42.292;23.146;2023-12-20T10:59:17;95229.16;;;0.39;82.87
69570;BME280;56781;42.292;23.146;2023-12-20T11:01:50;95064.13;;;-0.07;82.35
69570;BME280;56781;42.292;23.146;2023-12-20T11:04:23;95247.25;;;0.78;83.30
69570;BME280;56781;42.292;23.146;2023-12-20T11:06:58;95164.34;;;0.43;84.50
69570;BME280;56781;42.292;23.146;2023-12-20T11:09:34;95056.06;;;0.09;82.74
69570;BME280;56781;42.292;23.146;2023-12-20T11:12:09;94943.47;;;-0.77;83.56
69570;BME280;56781;42.292;23.146;2023-12-20T11:14:45;94837.09;;;-1.49;82.18
69570;BME280;56781;42.292;23.146;2023-12-20T11:17:14;95137.72;;;0.41;83.19
69570;BME280;56781;42.292;23.146;2023-12-20T11:20:08;94999.13;;;-0.24;82.47
69570;BME280;56781;42.292;23.146;2023-12-20T11:22:40;95190.69;;;1.28;82.41
69570;BME280;56781;42.292;23.146;2023-12-20T11:25:20;95202.59;;;1.15;81.81
69570;BME280;56781;42.292;23.146;2023-12-20T11:28:07;94970.72;;;-0.18;82.46
69570;BME280;56781;42.292;23.146;2023-12-20T11:30:45;95122.09;;;0.93;83.34
69570;BME280;56781;42.292;23.146;2023-12-20T11:33:15;95004.22;;;-0.01;83.36
69570;BME280;56781;42.292;23.146;2023-12-20T11:35:46;94826.53;;;-0.63;82.04
69570;BME280;56781;42.292;23.146;2023-12-20T11:38:15;95039.00;;;-0.08;83.88
69570;BME280;56781;42.292;23.146;2023-12-20T11:40:44;94831.22;;;-1.13;84.02
69570;BME280;56781;42.292;23.146;2023-12-20T11:43:29;95091.69;;;0.88;83.81
69570;BME280;56781;42.292;23.146;2023-12-20T11:46:03;94813.91;;;-0.91;83.82
69570;BME280;56781;42.292;23.146;2023-12-20T11:48:35;94952.56;;;-0.34;84.05
69570;BME280;56781;42.292;23.146;2023-12-20T11:51:11;95130.91;;;0.70;85.30
69570;BME280;56781;42.292;23.146;2023-12-20T11:53:40;94798.28;;;-1.47;86.45
69570;BME280;56781;42.292;23.146;2023-12-20T11:56:09;95122.09;;;0.93;84.59
69570;BME280;56781;42.292;23.146;2023-12-20T11:58:39;94817.56;;;-0.99;84.58
69570;BME280;56781;42.292;23.146;2023-12-20T12:01:08;94790.69;;;-0.92;85.03
69570;BME280;56781;42.292;23.146;2023-12-20T12:03:38;95058.31;;;1.44;83.23
69570;BME280;56781;42.292;23.146;2023-12-20T12:06:06;94787.19;;;-0.25;82.49
69570;BME280;56781;42.292;23.146;2023-12-20T12:08:37;95107.09;;;2.07;84.30
69570;BME280;56781;42.292;23.146;2023-12-20T12:11:06;95097.84;;;2.49;83.93
69570;BME280;56781;42.292;23.146;2023-12-20T12:13:34;94795.69;;;0.78;82.47
69570;BME280;56781;42.292;23.146;2023-12-20T12:16:04;94919.72;;;1.33;81.18
69570;BME280;56781;42.292;23.146;2023-12-20T12:18:33;95069.50;;;2.10;82.74
69570;BME280;56781;42.292;23.146;2023-12-20T12:21:03;94683.81;;;-0.32;81.82
69570;BME280;56781;42.292;23.146;2023-12-20T12:23:43;95093.88;;;1.92;83.21
69570;BME280;56781;42.292;23.146;2023-12-20T12:26:11;95062.81;;;1.47;85.05
69570;BME280;56781;42.292;23.146;2023-12-20T12:28:40;94926.06;;;0.60;85.30
69570;BME280;56781;42.292;23.146;2023-12-20T12:31:13;94680.38;;;-1.31;85.14
69570;BME280;56781;42.292;23.146;2023-12-20T12:33:43;95092.28;;;1.70;84.84
69570;BME280;56781;42.292;23.146;2023-12-20T12:36:12;94978.22;;;1.16;84.50
69570;BME280;56781;42.292;23.146;2023-12-20T12:38:44;95057.47;;;2.02;84.93
69570;BME280;56781;42.292;23.146;2023-12-20T12:41:13;94945.69;;;1.46;84.08
69570;BME280;56781;42.292;23.146;2023-12-20T12:43:42;94924.13;;;1.15;84.42
69570;BME280;56781;42.292;23.146;2023-12-20T12:46:11;94894.44;;;0.97;83.92
69570;BME280;56781;42.292;23.146;2023-12-20T12:48:40;95057.16;;;2.21;83.63
69570;BME280;56781;42.292;23.146;2023-12-20T12:51:12;94938.06;;;1.19;84.14
69570;BME280;56781;42.292;23.146;2023-12-20T12:53:41;95055.28;;;2.18;84.19
69570;BME280;56781;42.292;23.146;2023-12-20T12:56:12;94994.63;;;1.82;85.09
69570;BME280;56781;42.292;23.146;2023-12-20T12:58:42;95030.44;;;2.05;84.63
69570;BME280;56781;42.292;23.146;2023-12-20T13:01:11;95049.34;;;2.53;83.48
69570;BME280;56781;42.292;23.146;2023-12-20T13:03:40;95070.81;;;2.66;84.08